ROMMA est une association bénévole à but non lucratif. Votre soutien est indispensable : ADHERER à ROMMA ou FAIRE un DON

Nice - (06, Alpes-Maritimes)

Côte-d'Azur (190 m)   Longitude: 07° 14' E   Latitude: 43° 43' N Station partenaire n°136
 

Détail journalier du     <<     >>

Température Precipitation Humidité Pression Vent Dir Rafale Dir. rafale Ensol.
Heure (°C) (mm) (%) (hPa) (km/h) (km/h) (min)
01:00 16.608310132SSO6SSO0
02:00 15.906110135O13NO0
03:00 16.607610149ONO18ONO0
04:00 15.407010137ONO15ONO0
05:00 14.806510133N15N0
06:00 14.805910135NNE13NNE0
07:00 14.105910133N10NNE0
08:00 15.206010146N16N10
09:00 16.106210143N10NNO50
10:00 17.805910153NNE10NNE30
11:00 19.607310152NNE11ESE40
12:00 21.207110165ESE15ESE60
13:00 21.706810167SSE18SSE60
14:00 21.306710169SE18SE60
15:00 20.407110169SSE18SE60
16:00 20.907010167SE18SSE60
17:00 20.007410165SSE18SE60
18:00 18.408010165SSE13SSE0
19:00 17.308510172SSE8SSE0
20:00 16.6087101800---0
21:00 16.308810182SSE6SSE0
22:00 15.708910191---6N0
23:00 16.108710202NNO8NNO0
minuit 15.608810204NNE8NNO0

Graphique du 10-10-2019

 

Serveur OMMA